createdAt,value
2023-04-03T00:01:24.254Z,101950.25
2023-04-03T00:03:52.971Z,101941.63
2023-04-03T00:06:21.402Z,101944.28
2023-04-03T00:08:49.676Z,101946.91
2023-04-03T00:11:18.708Z,101936.53
2023-04-03T00:13:47.782Z,101935.63
2023-04-03T00:16:17.481Z,101930.50
2023-04-03T00:18:46.279Z,101927.06
2023-04-03T00:21:15.539Z,101924.50
2023-04-03T00:23:43.857Z,101915.94
2023-04-03T00:26:12.358Z,101922.84
2023-04-03T00:28:41.963Z,101923.75
2023-04-03T00:31:10.567Z,101915.13
2023-04-03T00:33:40.364Z,101913.47
2023-04-03T00:36:10.486Z,101910.88
2023-04-03T00:38:40.084Z,101909.97
2023-04-03T00:41:08.509Z,101904.75
2023-04-03T00:43:36.803Z,101905.56
2023-04-03T00:46:05.241Z,101903.88
2023-04-03T00:48:36.799Z,101900.50
2023-04-03T00:51:09.536Z,101895.38
2023-04-03T00:53:42.091Z,101897.19
2023-04-03T00:56:11.861Z,101897.25
2023-04-03T00:58:44.754Z,101895.47
2023-04-03T01:01:18.275Z,101891.97
2023-04-03T01:03:46.685Z,101891.94
2023-04-03T01:06:19.346Z,101890.25
2023-04-03T01:08:51.448Z,101885.97
2023-04-03T01:11:21.732Z,101884.25
2023-04-03T01:13:50.829Z,101874.75
2023-04-03T01:16:19.159Z,101879.91
2023-04-03T01:18:48.955Z,101869.66
2023-04-03T01:21:56.751Z,101866.94
2023-04-03T01:24:34.212Z,101860.97
2023-04-03T01:27:07.058Z,101860.09
2023-04-03T01:29:35.941Z,101860.16
2023-04-03T01:32:06.534Z,101859.34
2023-04-03T01:34:35.161Z,101860.28
2023-04-03T01:37:03.517Z,101858.56
2023-04-03T01:39:31.791Z,101852.56
2023-04-03T01:42:01.318Z,101850.03
2023-04-03T01:44:36.153Z,101842.28
2023-04-03T01:47:08.564Z,101845.75
2023-04-03T01:49:37.905Z,101840.63
2023-04-03T01:52:06.343Z,101840.66
2023-04-03T01:54:34.555Z,101845.88
2023-04-03T01:57:02.897Z,101839.00
2023-04-03T01:59:31.909Z,101836.44
2023-04-03T02:02:00.208Z,101844.22
2023-04-03T02:04:29.877Z,101841.69
2023-04-03T02:06:58.535Z,101834.00
2023-04-03T02:09:27.451Z,101834.06
2023-04-03T02:11:57.505Z,101837.50
2023-04-03T02:14:25.965Z,101828.94
2023-04-03T02:16:54.284Z,101834.13
2023-04-03T02:19:24.676Z,101832.41
2023-04-03T02:21:54.444Z,101829.91
2023-04-03T02:24:22.844Z,101824.75
2023-04-03T02:26:51.042Z,101825.59
2023-04-03T02:29:19.345Z,101829.06
2023-04-03T02:31:47.902Z,101834.22
2023-04-03T02:34:17.032Z,101829.06
2023-04-03T02:36:46.319Z,101823.00
2023-04-03T02:39:17.442Z,101816.97
2023-04-03T02:41:46.239Z,101814.34
2023-04-03T02:44:20.497Z,101813.50
2023-04-03T02:46:49.270Z,101817.78
2023-04-03T02:49:17.648Z,101820.34
2023-04-03T02:51:45.885Z,101816.03
2023-04-03T02:54:16.068Z,101810.94
2023-04-03T02:56:48.612Z,101813.47
2023-04-03T02:59:17.033Z,101815.16
2023-04-03T03:01:46.121Z,101813.38
2023-04-03T03:04:14.652Z,101808.28
2023-04-03T03:06:44.750Z,101806.56
2023-04-03T03:09:14.230Z,101814.22
2023-04-03T03:11:46.068Z,101803.03
2023-04-03T03:14:14.320Z,101808.28
2023-04-03T03:16:42.520Z,101802.22
2023-04-03T03:19:11.112Z,101797.97
2023-04-03T03:21:39.621Z,101802.25
2023-04-03T03:24:08.693Z,101790.22
2023-04-03T03:26:37.084Z,101785.00
2023-04-03T03:29:07.121Z,101787.63
2023-04-03T03:31:35.472Z,101778.19
2023-04-03T03:34:03.781Z,101779.09
2023-04-03T03:36:32.738Z,101779.03
2023-04-03T03:39:01.955Z,101773.06
2023-04-03T03:41:30.959Z,101785.06
2023-04-03T03:43:59.534Z,101789.44
2023-04-03T03:46:31.504Z,101773.97
2023-04-03T03:49:00.229Z,101769.69
2023-04-03T03:51:28.748Z,101764.44
2023-04-03T03:53:57.571Z,101768.75
2023-04-03T03:56:26.405Z,101759.31
2023-04-03T03:58:57.233Z,101767.06
2023-04-03T04:01:26.052Z,101768.81
2023-04-03T04:03:56.664Z,101767.97
2023-04-03T04:06:28.871Z,101764.50
2023-04-03T04:09:00.841Z,101761.97
2023-04-03T04:11:30.128Z,101761.94
2023-04-03T04:13:58.598Z,101769.69
2023-04-03T04:16:29.536Z,101766.19
2023-04-03T04:19:02.370Z,101755.88
2023-04-03T04:21:31.059Z,101757.56
2023-04-03T04:23:59.365Z,101756.72
2023-04-03T04:26:27.936Z,101755.81
2023-04-03T04:28:56.427Z,101749.81
2023-04-03T04:31:24.825Z,101745.47
2023-04-03T04:33:53.603Z,101748.94
2023-04-03T04:36:23.618Z,101742.97
2023-04-03T04:38:54.030Z,101744.72
2023-04-03T04:41:24.448Z,101741.28
2023-04-03T04:43:54.195Z,101741.28
2023-04-03T04:46:22.789Z,101735.31
2023-04-03T04:48:56.185Z,101732.72
2023-04-03T04:51:27.491Z,101732.69
2023-04-03T04:53:57.167Z,101727.59
2023-04-03T04:56:26.506Z,101725.00
2023-04-03T04:58:58.147Z,101724.13
2023-04-03T05:01:28.613Z,101728.44
2023-04-03T05:04:04.412Z,101718.00
2023-04-03T05:06:36.122Z,101727.47
2023-04-03T05:09:07.815Z,101719.66
2023-04-03T05:11:36.575Z,101730.00
2023-04-03T05:14:07.882Z,101732.69
2023-04-03T05:16:37.472Z,101721.47
2023-04-03T05:19:06.406Z,101725.75
2023-04-03T05:21:36.272Z,101724.88
2023-04-03T05:24:10.527Z,101721.44
2023-04-03T05:26:41.873Z,101729.19
2023-04-03T05:29:10.387Z,101732.59
2023-04-03T05:31:38.890Z,101731.78
2023-04-03T05:34:09.616Z,101734.44
2023-04-03T05:36:40.930Z,101730.19
2023-04-03T05:39:11.082Z,101739.66
2023-04-03T05:41:43.241Z,101726.84
2023-04-03T05:44:11.816Z,101721.66
2023-04-03T05:46:40.411Z,101724.25
2023-04-03T05:49:11.102Z,101732.88
2023-04-03T05:51:41.709Z,101730.25
2023-04-03T05:54:26.867Z,101738.88
2023-04-03T05:57:01.566Z,101739.75
2023-04-03T05:59:30.460Z,101734.56
2023-04-03T06:02:00.718Z,101731.13
2023-04-03T06:04:29.097Z,101735.44
2023-04-03T06:07:00.060Z,101738.00
2023-04-03T06:09:31.402Z,101737.16
2023-04-03T06:12:01.897Z,101735.44
2023-04-03T06:14:31.459Z,101737.16
2023-04-03T06:17:01.131Z,101742.31
2023-04-03T06:19:29.787Z,101734.56
2023-04-03T06:22:01.276Z,101732.84
2023-04-03T06:24:30.239Z,101732.00
2023-04-03T06:26:59.887Z,101727.63
2023-04-03T06:29:28.428Z,101735.31
2023-04-03T06:31:56.690Z,101734.44
2023-04-03T06:34:25.829Z,101732.66
2023-04-03T06:36:54.122Z,101736.88
2023-04-03T06:39:24.592Z,101730.78
2023-04-03T06:41:53.904Z,101733.28
2023-04-03T06:44:30.445Z,101733.88
2023-04-03T06:46:58.742Z,101726.69
2023-04-03T06:49:27.353Z,101721.28
2023-04-03T06:51:56.626Z,101719.78
2023-04-03T06:54:26.295Z,101726.41
2023-04-03T06:56:54.559Z,101722.28
2023-04-03T06:59:23.043Z,101724.91
2023-04-03T07:01:52.236Z,101723.44
2023-04-03T07:04:21.452Z,101720.19
2023-04-03T07:06:51.047Z,101721.03
2023-04-03T07:09:19.540Z,101726.75
2023-04-03T07:11:49.375Z,101732.66
2023-04-03T07:14:17.665Z,101741.25
2023-04-03T07:16:46.103Z,101741.28
2023-04-03T07:19:14.515Z,101733.31
2023-04-03T07:21:43.048Z,101717.56
2023-04-03T07:24:14.891Z,101721.88
2023-04-03T07:26:46.365Z,101724.69
2023-04-03T07:29:16.380Z,101721.63
2023-04-03T07:31:45.889Z,101725.13
2023-04-03T07:34:14.262Z,101717.31
2023-04-03T07:36:42.463Z,101715.81
2023-04-03T07:39:10.707Z,101719.09
2023-04-03T07:41:39.377Z,101718.06
2023-04-03T07:44:10.751Z,101709.00
2023-04-03T07:46:41.998Z,101714.38
2023-04-03T07:49:10.436Z,101705.72
2023-04-03T07:51:38.882Z,101701.88
2023-04-03T07:54:07.161Z,101704.91
2023-04-03T07:56:35.539Z,101707.50
2023-04-03T07:59:03.992Z,101709.78
2023-04-03T08:01:33.651Z,101708.88
2023-04-03T08:04:03.614Z,101718.00
2023-04-03T08:06:45.719Z,101719.06
2023-04-03T08:09:15.451Z,101715.16
2023-04-03T08:11:43.912Z,101725.19
2023-04-03T08:14:16.588Z,101716.22
2023-04-03T08:16:46.611Z,101717.78
2023-04-03T08:19:25.302Z,101713.66
2023-04-03T08:21:55.787Z,101714.38
2023-04-03T08:24:24.023Z,101709.84
2023-04-03T08:26:52.415Z,101708.34
2023-04-03T08:29:20.730Z,101704.63
2023-04-03T08:31:50.821Z,101712.66
2023-04-03T08:34:21.400Z,101715.28
2023-04-03T08:36:49.943Z,101708.97
2023-04-03T08:39:19.448Z,101715.09
2023-04-03T08:41:48.945Z,101711.53
2023-04-03T08:44:25.599Z,101702.31
2023-04-03T08:47:13.649Z,101705.00
2023-04-03T08:49:48.955Z,101698.75
2023-04-03T08:52:21.459Z,101690.53
2023-04-03T08:54:53.716Z,101695.50
2023-04-03T08:57:30.821Z,101683.13
2023-04-03T09:00:03.704Z,101687.38
2023-04-03T09:02:36.032Z,101689.69
2023-04-03T09:05:14.541Z,101685.69
2023-04-03T09:07:48.647Z,101676.91
2023-04-03T09:10:21.241Z,101669.06
2023-04-03T09:12:55.854Z,101671.59
2023-04-03T09:15:37.963Z,101668.25
2023-04-03T09:18:15.673Z,101669.78
2023-04-03T09:20:52.943Z,101672.66
2023-04-03T09:23:30.260Z,101671.06
2023-04-03T09:26:06.126Z,101662.09
2023-04-03T09:28:43.113Z,101663.94
2023-04-03T09:31:22.155Z,101672.34
2023-04-03T09:33:54.844Z,101666.38
2023-04-03T09:36:44.605Z,101665.50
2023-04-03T09:39:17.102Z,101652.94
2023-04-03T09:41:58.217Z,101657.13
2023-04-03T09:44:28.290Z,101654.91
2023-04-03T09:46:56.601Z,101653.84
2023-04-03T09:49:24.920Z,101651.09
2023-04-03T09:51:54.831Z,101658.41
2023-04-03T09:54:38.626Z,101643.47
2023-04-03T09:57:11.472Z,101642.06
2023-04-03T09:59:48.454Z,101638.25
2023-04-03T10:02:36.961Z,101637.66
2023-04-03T10:05:10.033Z,101631.22
2023-04-03T10:07:42.917Z,101638.69
2023-04-03T10:10:26.783Z,101625.25
2023-04-03T10:13:09.364Z,101629.66
2023-04-03T10:15:45.106Z,101622.00
2023-04-03T10:18:31.980Z,101612.34
2023-04-03T10:21:06.126Z,101621.94
2023-04-03T10:23:46.936Z,101619.00
2023-04-03T10:26:26.687Z,101610.75
2023-04-03T10:29:04.463Z,101628.56
2023-04-03T10:31:39.477Z,101616.94
2023-04-03T10:34:08.949Z,101614.38
2023-04-03T10:36:46.128Z,101610.53
2023-04-03T10:39:27.582Z,101620.06
2023-04-03T10:42:13.310Z,101610.13
2023-04-03T10:45:00.286Z,101600.84
2023-04-03T10:47:39.411Z,101603.91
2023-04-03T10:50:25.560Z,101605.06
2023-04-03T10:52:59.728Z,101598.28
2023-04-03T10:55:38.151Z,101602.22
2023-04-03T10:58:08.649Z,101597.09
2023-04-03T11:00:44.804Z,101590.53
2023-04-03T11:03:17.253Z,101590.06
2023-04-03T11:05:47.843Z,101593.66
2023-04-03T11:08:27.528Z,101593.19
2023-04-03T11:11:02.043Z,101582.00
2023-04-03T11:13:36.527Z,101588.69
2023-04-03T11:16:07.562Z,101590.88
2023-04-03T11:18:42.340Z,101576.53
2023-04-03T11:21:17.163Z,101583.03
2023-04-03T11:23:50.277Z,101583.66
2023-04-03T11:26:22.080Z,101569.81
2023-04-03T11:28:56.352Z,101569.16
2023-04-03T11:31:43.131Z,101571.88
2023-04-03T11:34:26.314Z,101580.41
2023-04-03T11:36:58.805Z,101585.75
2023-04-03T11:39:30.829Z,101574.50
2023-04-03T11:42:16.915Z,101570.97
2023-04-03T11:44:45.255Z,101567.91
2023-04-03T11:47:34.870Z,101565.44
2023-04-03T11:50:04.862Z,101552.00
2023-04-03T11:53:01.608Z,101552.06
2023-04-03T11:55:46.801Z,101548.59
2023-04-03T11:58:19.495Z,101539.19
2023-04-03T12:01:11.260Z,101535.16
2023-04-03T12:03:58.915Z,101521.75
2023-04-03T12:06:57.565Z,101527.88
2023-04-03T12:09:29.900Z,101512.22
2023-04-03T12:11:59.543Z,101514.19
2023-04-03T12:14:31.220Z,101508.72
2023-04-03T12:17:00.977Z,101511.22
2023-04-03T12:22:18.161Z,101500.28
2023-04-03T12:24:49.585Z,101504.97
2023-04-03T12:27:43.054Z,101500.16
2023-04-03T12:30:23.658Z,101495.25
2023-04-03T12:33:16.219Z,101481.78
2023-04-03T12:35:56.825Z,101486.03
2023-04-03T12:38:43.208Z,101495.50
2023-04-03T12:41:30.103Z,101484.44
2023-04-03T12:44:21.671Z,101482.28
2023-04-03T12:46:54.181Z,101482.22
2023-04-03T12:49:37.476Z,101479.94
2023-04-03T12:52:08.305Z,101487.06
2023-04-03T12:54:40.844Z,101492.41
2023-04-03T12:57:13.609Z,101488.91
2023-04-03T12:59:42.403Z,101482.69
2023-04-03T13:02:25.590Z,101477.34
2023-04-03T13:04:55.399Z,101474.13
2023-04-03T13:07:26.738Z,101477.59
2023-04-03T13:10:01.041Z,101467.16
2023-04-03T13:12:31.835Z,101468.34
2023-04-03T13:15:03.901Z,101467.81
2023-04-03T13:17:33.640Z,101471.22
2023-04-03T13:20:13.897Z,101462.50
2023-04-03T13:22:52.768Z,101466.28
2023-04-03T13:25:23.621Z,101456.00
2023-04-03T13:27:57.589Z,101458.53
2023-04-03T13:30:38.972Z,101449.63
2023-04-03T13:33:23.076Z,101455.91
2023-04-03T13:35:57.970Z,101443.13
2023-04-03T13:38:28.317Z,101438.44
2023-04-03T13:40:59.281Z,101437.59
2023-04-03T13:43:29.499Z,101436.59
2023-04-03T13:46:06.168Z,101434.38
2023-04-03T13:48:44.729Z,101426.34
2023-04-03T13:51:22.966Z,101429.47
2023-04-03T13:53:53.722Z,101423.25
2023-04-03T13:56:27.195Z,101424.41
2023-04-03T13:58:58.798Z,101414.47
2023-04-03T14:01:37.607Z,101423.41
2023-04-03T14:04:19.457Z,101418.22
2023-04-03T14:06:47.885Z,101416.34
2023-04-03T14:09:17.434Z,101412.16
2023-04-03T14:11:46.204Z,101400.78
2023-04-03T14:14:18.081Z,101403.41
2023-04-03T14:16:53.561Z,101407.53
2023-04-03T14:19:25.631Z,101403.81
2023-04-03T14:21:54.786Z,101398.03
2023-04-03T14:24:24.646Z,101408.50
2023-04-03T14:26:55.569Z,101406.63
2023-04-03T14:29:24.875Z,101404.50
2023-04-03T14:32:03.732Z,101404.03
2023-04-03T14:34:41.535Z,101405.31
2023-04-03T14:37:13.899Z,101408.59
2023-04-03T14:39:43.541Z,101398.09
2023-04-03T14:42:15.793Z,101414.66
2023-04-03T14:44:43.962Z,101401.84
2023-04-03T14:47:29.730Z,101399.44
2023-04-03T14:50:02.191Z,101397.91
2023-04-03T14:52:32.539Z,101394.50
2023-04-03T14:55:01.707Z,101391.22
2023-04-03T14:57:30.979Z,101381.16
2023-04-03T14:59:59.484Z,101383.00
2023-04-03T15:02:31.300Z,101374.13
2023-04-03T15:05:01.925Z,101365.25
2023-04-03T15:07:32.316Z,101365.53
2023-04-03T15:10:02.256Z,101370.28
2023-04-03T15:12:30.482Z,101363.75
2023-04-03T15:15:02.850Z,101369.50
2023-04-03T15:17:31.845Z,101361.25
2023-04-03T15:20:02.590Z,101365.03
2023-04-03T15:22:30.868Z,101361.72
2023-04-03T15:24:59.060Z,101364.59
2023-04-03T15:27:27.345Z,101358.94
2023-04-03T15:29:55.706Z,101354.19
2023-04-03T15:32:24.064Z,101362.03
2023-04-03T15:34:55.009Z,101352.56
2023-04-03T15:37:26.662Z,101339.25
2023-04-03T15:39:56.322Z,101354.25
2023-04-03T15:42:24.530Z,101354.31
2023-04-03T15:44:52.838Z,101338.28
2023-04-03T15:47:21.048Z,101345.47
2023-04-03T15:49:49.410Z,101354.13
2023-04-03T15:52:17.571Z,101342.84
2023-04-03T15:54:47.196Z,101343.59
2023-04-03T15:57:15.508Z,101336.88
2023-04-03T15:59:43.718Z,101344.66
2023-04-03T16:02:14.006Z,101332.19
2023-04-03T16:04:42.808Z,101338.50
2023-04-03T16:07:11.024Z,101342.47
2023-04-03T16:09:39.274Z,101340.53
2023-04-03T16:12:08.913Z,101339.25
2023-04-03T16:14:38.202Z,101327.50
2023-04-03T16:17:06.419Z,101341.28
2023-04-03T16:19:34.648Z,101329.00
2023-04-03T16:22:02.971Z,101327.53
2023-04-03T16:24:31.582Z,101331.72
2023-04-03T16:26:59.891Z,101332.13
2023-04-03T16:29:29.548Z,101336.00
2023-04-03T16:31:59.266Z,101334.09
2023-04-03T16:34:27.717Z,101345.47
2023-04-03T16:36:56.083Z,101337.63
2023-04-03T16:39:24.424Z,101334.38
2023-04-03T16:41:52.676Z,101325.88
2023-04-03T16:44:21.043Z,101339.75
2023-04-03T16:46:50.797Z,101332.91
2023-04-03T16:49:19.046Z,101334.50
2023-04-03T16:51:47.731Z,101330.41
2023-04-03T16:54:16.163Z,101329.34
2023-04-03T16:56:44.396Z,101330.88
2023-04-03T16:59:12.593Z,101331.69
2023-04-03T17:01:40.859Z,101327.19
2023-04-03T17:04:10.888Z,101333.22
2023-04-03T17:06:39.322Z,101340.38
2023-04-03T17:09:08.379Z,101348.00
2023-04-03T17:11:37.566Z,101337.00
2023-04-03T17:14:06.156Z,101343.88
2023-04-03T17:16:36.246Z,101338.00
2023-04-03T17:19:04.990Z,101346.75
2023-04-03T17:21:35.526Z,101339.66
2023-04-03T17:24:09.475Z,101340.22
2023-04-03T17:26:38.639Z,101337.47
2023-04-03T17:41:13.541Z,101335.69
2023-04-03T17:43:41.724Z,101337.22
2023-04-03T17:46:11.915Z,101333.44
2023-04-03T17:48:41.684Z,101345.75
2023-04-03T17:51:11.651Z,101348.66
2023-04-03T17:53:39.939Z,101342.13
2023-04-03T17:56:09.762Z,101344.25
2023-04-03T17:58:39.572Z,101348.19
2023-04-03T18:01:13.029Z,101348.66
2023-04-03T18:03:41.891Z,101343.59
2023-04-03T18:06:13.243Z,101355.13
2023-04-03T18:08:45.404Z,101355.34
2023-04-03T18:11:14.461Z,101354.63
2023-04-03T18:13:45.025Z,101362.59
2023-04-03T18:16:14.716Z,101361.00
2023-04-03T18:18:42.989Z,101361.94
2023-04-03T18:21:16.048Z,101358.66
2023-04-03T18:23:48.366Z,101359.75
2023-04-03T18:26:19.835Z,101354.69
2023-04-03T18:28:52.162Z,101364.53
2023-04-03T18:31:21.193Z,101363.69
2023-04-03T18:33:49.378Z,101357.69
2023-04-03T18:36:17.977Z,101365.47
2023-04-03T18:38:46.207Z,101365.63
2023-04-03T18:41:15.711Z,101365.06
2023-04-03T18:43:43.863Z,101365.34
2023-04-03T18:46:13.920Z,101371.47
2023-04-03T18:48:43.716Z,101366.34
2023-04-03T18:51:13.492Z,101374.94
2023-04-03T18:53:41.780Z,101375.00
2023-04-03T18:56:09.981Z,101376.78
2023-04-03T18:58:38.143Z,101375.34
2023-04-03T19:01:10.835Z,101375.59
2023-04-03T19:03:40.768Z,101380.25
2023-04-03T19:06:09.421Z,101380.50
2023-04-03T19:08:38.943Z,101378.94
2023-04-03T19:11:07.207Z,101379.06
2023-04-03T19:13:38.956Z,101384.31
2023-04-03T19:16:11.096Z,101384.38
2023-04-03T19:18:40.800Z,101391.38
2023-04-03T19:21:09.334Z,101399.19
2023-04-03T19:23:38.218Z,101397.47
2023-04-03T19:26:09.163Z,101395.69
2023-04-03T19:28:38.419Z,101402.69
2023-04-03T19:31:13.793Z,101402.69
2023-04-03T19:33:45.167Z,101410.47
2023-04-03T19:36:13.810Z,101421.69
2023-04-03T19:38:42.792Z,101413.97
2023-04-03T19:41:14.553Z,101420.13
2023-04-03T19:43:42.967Z,101415.09
2023-04-03T19:46:11.791Z,101424.53
2023-04-03T19:48:40.828Z,101425.44
2023-04-03T19:51:11.628Z,101424.56
2023-04-03T19:53:40.128Z,101431.56
2023-04-03T19:56:08.896Z,101435.06
2023-04-03T19:58:37.479Z,101432.63
2023-04-03T20:01:05.749Z,101437.06
2023-04-03T20:03:34.555Z,101444.19
2023-04-03T20:06:03.652Z,101438.34
2023-04-03T20:08:35.409Z,101442.78
2023-04-03T20:11:03.667Z,101442.94
2023-04-03T20:13:33.135Z,101444.72
2023-04-03T20:16:03.696Z,101448.25
2023-04-03T20:18:32.531Z,101449.16
2023-04-03T20:21:02.854Z,101455.22
2023-04-03T20:23:32.413Z,101447.50
2023-04-03T20:26:10.288Z,101457.00
2023-04-03T20:28:40.807Z,101460.47
2023-04-03T20:31:10.163Z,101458.78
2023-04-03T20:33:38.470Z,101460.59
2023-04-03T20:36:08.585Z,101462.28
2023-04-03T20:38:36.840Z,101450.22
2023-04-03T20:41:06.611Z,101452.72
2023-04-03T20:43:35.750Z,101460.41
2023-04-03T20:46:04.582Z,101460.34
2023-04-03T20:48:33.108Z,101462.03
2023-04-03T20:51:10.425Z,101467.16
2023-04-03T20:53:38.718Z,101467.13
2023-04-03T20:56:09.213Z,101468.84
2023-04-03T20:58:39.100Z,101474.88
2023-04-03T21:01:15.607Z,101485.25
2023-04-03T21:03:44.067Z,101484.50
2023-04-03T21:06:49.776Z,101482.97
2023-04-03T21:09:56.781Z,101486.59
2023-04-03T21:13:03.318Z,101497.13
2023-04-03T21:15:55.025Z,101495.50
2023-04-03T21:18:50.686Z,101491.22
2023-04-03T21:21:22.362Z,101499.88
2023-04-03T21:23:51.932Z,101497.28
2023-04-03T21:26:21.754Z,101498.22
2023-04-03T21:28:52.227Z,101495.63
2023-04-03T21:31:21.250Z,101496.50
2023-04-03T21:33:50.981Z,101499.94
2023-04-03T21:36:19.280Z,101494.78
2023-04-03T21:38:48.265Z,101494.81
2023-04-03T21:41:16.546Z,101503.41
2023-04-03T21:43:47.747Z,101499.13
2023-04-03T21:46:16.786Z,101500.00
2023-04-03T21:48:47.202Z,101505.16
2023-04-03T21:51:17.473Z,101499.16
2023-04-03T21:53:46.754Z,101502.59
2023-04-03T21:56:15.317Z,101506.88
2023-04-03T21:58:43.546Z,101503.44
2023-04-03T22:01:13.204Z,101512.00
2023-04-03T22:03:42.567Z,101507.75
2023-04-03T22:06:13.042Z,101500.00
2023-04-03T22:08:43.037Z,101492.31
2023-04-03T22:11:14.162Z,101500.06
2023-04-03T22:15:37.432Z,101503.53
2023-04-03T22:18:06.141Z,101505.28
2023-04-03T22:20:36.237Z,101507.00
2023-04-03T22:23:04.430Z,101501.84
2023-04-03T22:25:32.789Z,101496.69
2023-04-03T22:28:01.236Z,101500.16
2023-04-03T22:30:29.609Z,101506.16
2023-04-03T22:32:59.340Z,101511.31
2023-04-03T22:35:27.809Z,101511.34
2023-04-03T22:37:56.401Z,101508.78
2023-04-03T22:40:24.928Z,101505.34
2023-04-03T22:42:54.107Z,101512.19
2023-04-03T22:45:22.394Z,101507.09
2023-04-03T22:47:50.636Z,101516.53
2023-04-03T22:50:20.378Z,101518.22
2023-04-03T22:52:48.888Z,101514.81
2023-04-03T22:55:19.483Z,101512.25
2023-04-03T22:57:48.099Z,101518.25
2023-04-03T23:00:17.245Z,101520.84
2023-04-03T23:02:45.492Z,101514.84
2023-04-03T23:05:13.878Z,101513.13
2023-04-03T23:07:43.773Z,101516.56
2023-04-03T23:10:12.753Z,101512.28
2023-04-03T23:12:41.370Z,101514.00
2023-04-03T23:15:10.522Z,101508.03
2023-04-03T23:17:38.829Z,101519.16
2023-04-03T23:20:08.293Z,101515.75
2023-04-03T23:22:36.521Z,101514.88
2023-04-03T23:25:07.653Z,101526.03
2023-04-03T23:27:36.669Z,101519.19
2023-04-03T23:30:09.510Z,101523.47
2023-04-03T23:32:40.458Z,101523.47
2023-04-03T23:35:11.969Z,101532.03
2023-04-03T23:37:40.745Z,101525.19
2023-04-03T23:40:12.033Z,101533.75
2023-04-03T23:42:40.295Z,101530.34
2023-04-03T23:45:09.847Z,101541.50
2023-04-03T23:47:38.614Z,101539.78
2023-04-03T23:50:07.941Z,101541.50
2023-04-03T23:52:36.363Z,101548.34
2023-04-03T23:55:04.802Z,101547.47
2023-04-03T23:57:34.381Z,101548.34
